sensor_id;sensor_type;location;lat;lon;timestamp;pressure;altitude;pressure_sealevel;temperature;humidity
49044;BME280;34860;48.066;14.124;2024-03-22T00:01:01;97291.94;;;7.69;72.02
49044;BME280;34860;48.066;14.124;2024-03-22T00:03:53;97283.63;;;7.66;72.03
49044;BME280;34860;48.066;14.124;2024-03-22T00:06:48;97290.38;;;7.64;72.02
49044;BME280;34860;48.066;14.124;2024-03-22T00:09:37;97289.16;;;7.66;71.84
49044;BME280;34860;48.066;14.124;2024-03-22T00:12:26;97292.75;;;7.66;72.03
49044;BME280;34860;48.066;14.124;2024-03-22T00:15:14;97296.66;;;7.69;71.78
49044;BME280;34860;48.066;14.124;2024-03-22T00:18:09;97293.53;;;7.67;71.77
49044;BME280;34860;48.066;14.124;2024-03-22T00:20:57;97292.75;;;7.66;71.68
49044;BME280;34860;48.066;14.124;2024-03-22T00:23:45;97293.94;;;7.65;71.85
49044;BME280;34860;48.066;14.124;2024-03-22T00:26:33;97293.16;;;7.64;71.76
49044;BME280;34860;48.066;14.124;2024-03-22T00:29:22;97291.97;;;7.62;71.84
49044;BME280;34860;48.066;14.124;2024-03-22T00:32:10;97295.50;;;7.62;71.83
49044;BME280;34860;48.066;14.124;2024-03-22T00:34:59;97290.41;;;7.57;71.72
49044;BME280;34860;48.066;14.124;2024-03-22T00:37:49;97288.84;;;7.56;71.88
49044;BME280;34860;48.066;14.124;2024-03-22T00:40:36;97281.34;;;7.53;71.92
49044;BME280;34860;48.066;14.124;2024-03-22T00:43:25;97285.28;;;7.52;72.02
49044;BME280;34860;48.066;14.124;2024-03-22T00:46:12;97281.75;;;7.52;72.03
49044;BME280;34860;48.066;14.124;2024-03-22T00:49:00;97276.22;;;7.52;71.86
49044;BME280;34860;48.066;14.124;2024-03-22T00:51:49;97280.13;;;7.54;71.92
49044;BME280;34860;48.066;14.124;2024-03-22T00:54:38;97277.78;;;7.56;71.86
49044;BME280;34860;48.066;14.124;2024-03-22T00:57:27;97274.63;;;7.58;71.72
49044;BME280;34860;48.066;14.124;2024-03-22T01:00:17;97269.44;;;7.63;71.63
49044;BME280;34860;48.066;14.124;2024-03-22T01:03:17;97267.84;;;7.66;71.55
49044;BME280;34860;48.066;14.124;2024-03-22T01:06:30;97257.16;;;7.68;71.46
49044;BME280;34860;48.066;14.124;2024-03-22T01:09:37;97257.94;;;7.69;71.55
49044;BME280;34860;48.066;14.124;2024-03-22T01:12:26;97254.41;;;7.68;71.54
49044;BME280;34860;48.066;14.124;2024-03-22T01:15:21;97260.69;;;7.69;71.54
49044;BME280;34860;48.066;14.124;2024-03-22T01:18:18;97256.34;;;7.71;71.62
49044;BME280;34860;48.066;14.124;2024-03-22T01:21:30;97257.94;;;7.72;71.58
49044;BME280;34860;48.066;14.124;2024-03-22T01:24:53;97252.81;;;7.71;71.70
49044;BME280;34860;48.066;14.124;2024-03-22T01:28:05;97250.03;;;7.67;71.73
49044;BME280;34860;48.066;14.124;2024-03-22T01:31:21;97255.97;;;7.66;71.72
49044;BME280;34860;48.066;14.124;2024-03-22T01:34:32;97248.47;;;7.62;71.82
49044;BME280;34860;48.066;14.124;2024-03-22T01:37:48;97237.41;;;7.62;71.68
49044;BME280;34860;48.066;14.124;2024-03-22T01:41:05;97235.06;;;7.64;71.77
49044;BME280;34860;48.066;14.124;2024-03-22T01:45:10;97231.47;;;7.64;71.73
49044;BME280;34860;48.066;14.124;2024-03-22T01:48:18;97244.13;;;7.65;71.70
49044;BME280;34860;48.066;14.124;2024-03-22T01:51:05;97232.66;;;7.67;71.78
49044;BME280;34860;48.066;14.124;2024-03-22T01:53:54;97229.09;;;7.70;71.74
49044;BME280;34860;48.066;14.124;2024-03-22T01:56:44;97230.66;;;7.74;71.52
49044;BME280;34860;48.066;14.124;2024-03-22T01:59:33;97227.06;;;7.77;71.39
49044;BME280;34860;48.066;14.124;2024-03-22T02:02:20;97234.94;;;7.82;71.50
49044;BME280;34860;48.066;14.124;2024-03-22T02:05:12;97229.78;;;7.85;71.55
49044;BME280;34860;48.066;14.124;2024-03-22T02:07:59;97232.97;;;7.83;71.44
49044;BME280;34860;48.066;14.124;2024-03-22T02:10:48;97230.59;;;7.81;71.47
49044;BME280;34860;48.066;14.124;2024-03-22T02:13:40;97215.59;;;7.79;71.80
49044;BME280;34860;48.066;14.124;2024-03-22T02:16:35;97217.59;;;7.75;71.74
49044;BME280;34860;48.066;14.124;2024-03-22T02:19:22;97216.44;;;7.72;71.68
49044;BME280;34860;48.066;14.124;2024-03-22T02:22:10;97202.97;;;7.74;71.82
49044;BME280;34860;48.066;14.124;2024-03-22T02:24:59;97206.94;;;7.73;71.60
49044;BME280;34860;48.066;14.124;2024-03-22T02:27:47;97210.50;;;7.74;71.71
49044;BME280;34860;48.066;14.124;2024-03-22T02:30:37;97199.44;;;7.74;71.67
49044;BME280;34860;48.066;14.124;2024-03-22T02:33:25;97210.09;;;7.72;71.62
49044;BME280;34860;48.066;14.124;2024-03-22T02:36:13;97192.72;;;7.71;71.83
49044;BME280;34860;48.066;14.124;2024-03-22T02:39:01;97199.03;;;7.72;71.58
49044;BME280;34860;48.066;14.124;2024-03-22T02:41:51;97191.94;;;7.71;71.62
49044;BME280;34860;48.066;14.124;2024-03-22T02:44:41;97188.78;;;7.69;71.68
49044;BME280;34860;48.066;14.124;2024-03-22T02:47:31;97193.53;;;7.68;71.77
49044;BME280;34860;48.066;14.124;2024-03-22T02:50:24;97192.75;;;7.64;71.74
49044;BME280;34860;48.066;14.124;2024-03-22T02:53:12;97191.97;;;7.63;71.62
49044;BME280;34860;48.066;14.124;2024-03-22T02:56:00;97189.19;;;7.67;71.73
49044;BME280;34860;48.066;14.124;2024-03-22T02:58:50;97185.19;;;7.72;71.62
49044;BME280;34860;48.066;14.124;2024-03-22T03:02:10;97190.72;;;7.75;71.61
49044;BME280;34860;48.066;14.124;2024-03-22T03:05:21;97195.03;;;7.84;71.71
49044;BME280;34860;48.066;14.124;2024-03-22T03:08:19;97192.19;;;7.91;71.47
49044;BME280;34860;48.066;14.124;2024-03-22T03:11:07;97193.34;;;7.97;71.27
49044;BME280;34860;48.066;14.124;2024-03-22T03:13:56;97187.81;;;7.97;71.10
49044;BME280;34860;48.066;14.124;2024-03-22T03:16:45;97186.22;;;7.99;71.42
49044;BME280;34860;48.066;14.124;2024-03-22T03:19:33;97187.41;;;7.98;71.35
49044;BME280;34860;48.066;14.124;2024-03-22T03:22:20;97192.56;;;7.96;71.33
49044;BME280;34860;48.066;14.124;2024-03-22T03:25:09;97187.88;;;7.90;71.59
49044;BME280;34860;48.066;14.124;2024-03-22T03:27:56;97184.72;;;7.84;71.73
49044;BME280;34860;48.066;14.124;2024-03-22T03:30:48;97182.34;;;7.86;71.83
49044;BME280;34860;48.066;14.124;2024-03-22T03:33:35;97176.47;;;7.80;71.77
49044;BME280;34860;48.066;14.124;2024-03-22T03:36:23;97170.53;;;7.78;71.64
49044;BME280;34860;48.066;14.124;2024-03-22T03:39:10;97172.94;;;7.73;71.92
49044;BME280;34860;48.066;14.124;2024-03-22T03:41:58;97172.63;;;7.63;71.89
49044;BME280;34860;48.066;14.124;2024-03-22T03:44:45;97165.94;;;7.57;72.09
49044;BME280;34860;48.066;14.124;2024-03-22T03:47:38;97170.31;;;7.55;72.20
49044;BME280;34860;48.066;14.124;2024-03-22T03:50:25;97172.28;;;7.51;72.21
49044;BME280;34860;48.066;14.124;2024-03-22T03:53:13;97173.88;;;7.48;72.24
49044;BME280;34860;48.066;14.124;2024-03-22T03:56:00;97167.19;;;7.45;72.45
49044;BME280;34860;48.066;14.124;2024-03-22T03:58:49;97164.03;;;7.43;72.20
49044;BME280;34860;48.066;14.124;2024-03-22T04:01:37;97170.78;;;7.42;72.31
49044;BME280;34860;48.066;14.124;2024-03-22T04:04:27;97171.53;;;7.43;72.35
49044;BME280;34860;48.066;14.124;2024-03-22T04:07:14;97167.59;;;7.44;72.16
49044;BME280;34860;48.066;14.124;2024-03-22T04:10:03;97154.94;;;7.43;72.18
49044;BME280;34860;48.066;14.124;2024-03-22T04:12:50;97154.94;;;7.43;72.27
49044;BME280;34860;48.066;14.124;2024-03-22T04:15:38;97148.25;;;7.44;72.16
49044;BME280;34860;48.066;14.124;2024-03-22T04:18:25;97144.25;;;7.45;72.31
49044;BME280;34860;48.066;14.124;2024-03-22T04:21:15;97141.50;;;7.45;72.24
49044;BME280;34860;48.066;14.124;2024-03-22T04:24:03;97125.31;;;7.47;72.29
49044;BME280;34860;48.066;14.124;2024-03-22T04:26:51;97139.91;;;7.48;72.37
49044;BME280;34860;48.066;14.124;2024-03-22T04:29:38;97120.16;;;7.49;72.15
49044;BME280;34860;48.066;14.124;2024-03-22T04:32:27;97119.34;;;7.52;72.24
49044;BME280;34860;48.066;14.124;2024-03-22T04:35:15;97118.56;;;7.52;72.12
49044;BME280;34860;48.066;14.124;2024-03-22T04:38:08;97114.63;;;7.49;72.36
49044;BME280;34860;48.066;14.124;2024-03-22T04:40:57;97107.13;;;7.46;72.31
49044;BME280;34860;48.066;14.124;2024-03-22T04:43:46;97115.06;;;7.44;72.37
49044;BME280;34860;48.066;14.124;2024-03-22T04:46:34;97118.63;;;7.41;72.31
49044;BME280;34860;48.066;14.124;2024-03-22T04:49:21;97121.81;;;7.39;72.40
49044;BME280;34860;48.066;14.124;2024-03-22T04:52:09;97126.16;;;7.40;72.28
49044;BME280;34860;48.066;14.124;2024-03-22T04:54:58;97126.16;;;7.37;72.44
49044;BME280;34860;48.066;14.124;2024-03-22T04:57:48;97127.41;;;7.25;72.49
49044;BME280;34860;48.066;14.124;2024-03-22T05:00:43;97123.91;;;7.17;72.74
49044;BME280;34860;48.066;14.124;2024-03-22T05:03:57;97121.59;;;7.05;72.96
49044;BME280;34860;48.066;14.124;2024-03-22T05:06:56;97120.81;;;6.97;72.95
49044;BME280;34860;48.066;14.124;2024-03-22T05:09:44;97116.91;;;6.95;73.02
49044;BME280;34860;48.066;14.124;2024-03-22T05:12:32;97110.59;;;6.90;73.07
49044;BME280;34860;48.066;14.124;2024-03-22T05:15:20;97105.50;;;6.85;73.01
49044;BME280;34860;48.066;14.124;2024-03-22T05:18:07;97107.91;;;6.80;73.06
49044;BME280;34860;48.066;14.124;2024-03-22T05:20:54;97100.41;;;6.77;73.17
49044;BME280;34860;48.066;14.124;2024-03-22T05:23:41;97107.53;;;6.74;73.17
49044;BME280;34860;48.066;14.124;2024-03-22T05:26:29;97110.66;;;6.76;73.07
49044;BME280;34860;48.066;14.124;2024-03-22T05:29:19;97100.41;;;6.73;73.08
49044;BME280;34860;48.066;14.124;2024-03-22T05:32:07;97104.38;;;6.72;73.14
49044;BME280;34860;48.066;14.124;2024-03-22T05:34:58;97087.41;;;6.70;73.05
49044;BME280;34860;48.066;14.124;2024-03-22T05:37:46;97092.91;;;6.70;72.98
49044;BME280;34860;48.066;14.124;2024-03-22T05:40:36;97098.84;;;6.72;72.99
49044;BME280;34860;48.066;14.124;2024-03-22T05:43:24;97096.84;;;6.76;72.98
49044;BME280;34860;48.066;14.124;2024-03-22T05:46:14;97092.91;;;6.77;72.98
49044;BME280;34860;48.066;14.124;2024-03-22T05:49:00;97096.03;;;6.83;72.88
49044;BME280;34860;48.066;14.124;2024-03-22T05:51:48;97099.16;;;6.88;72.79
49044;BME280;34860;48.066;14.124;2024-03-22T05:54:35;97087.31;;;6.91;72.87
49044;BME280;34860;48.066;14.124;2024-03-22T05:57:26;97091.63;;;7.00;72.77
49044;BME280;34860;48.066;14.124;2024-03-22T06:00:14;97092.75;;;7.09;72.60
49044;BME280;34860;48.066;14.124;2024-03-22T06:03:02;97091.91;;;7.16;72.56
49044;BME280;34860;48.066;14.124;2024-03-22T06:05:53;97089.91;;;7.27;72.54
49044;BME280;34860;48.066;14.124;2024-03-22T06:08:43;97090.19;;;7.37;72.39
49044;BME280;34860;48.066;14.124;2024-03-22T06:11:32;97096.50;;;7.41;72.36
49044;BME280;34860;48.066;14.124;2024-03-22T06:14:18;97103.19;;;7.43;72.40
49044;BME280;34860;48.066;14.124;2024-03-22T06:17:06;97107.50;;;7.52;72.36
49044;BME280;34860;48.066;14.124;2024-03-22T06:19:55;97104.25;;;7.60;72.45
49044;BME280;34860;48.066;14.124;2024-03-22T06:22:42;97097.88;;;7.67;72.25
49044;BME280;34860;48.066;14.124;2024-03-22T06:25:29;97103.41;;;7.71;72.35
49044;BME280;34860;48.066;14.124;2024-03-22T06:28:16;97102.56;;;7.77;72.26
49044;BME280;34860;48.066;14.124;2024-03-22T06:31:04;97106.88;;;7.82;72.25
49044;BME280;34860;48.066;14.124;2024-03-22T06:33:50;97101.34;;;7.82;72.39
49044;BME280;34860;48.066;14.124;2024-03-22T06:36:45;97109.22;;;7.87;72.41
49044;BME280;34860;48.066;14.124;2024-03-22T06:39:37;97107.97;;;7.92;72.49
49044;BME280;34860;48.066;14.124;2024-03-22T06:42:25;97109.91;;;7.98;72.31
49044;BME280;34860;48.066;14.124;2024-03-22T06:45:13;97111.00;;;8.08;72.42
49044;BME280;34860;48.066;14.124;2024-03-22T06:48:02;97121.19;;;8.18;72.24
49044;BME280;34860;48.066;14.124;2024-03-22T06:50:52;97111.22;;;8.28;72.22
49044;BME280;34860;48.066;14.124;2024-03-22T06:53:40;97107.16;;;8.36;72.00
49044;BME280;34860;48.066;14.124;2024-03-22T06:56:28;97104.31;;;8.47;72.06
49044;BME280;34860;48.066;14.124;2024-03-22T06:59:14;97113.31;;;8.59;71.82
49044;BME280;34860;48.066;14.124;2024-03-22T07:02:03;97096.94;;;8.68;71.75
49044;BME280;34860;48.066;14.124;2024-03-22T07:04:49;97101.59;;;8.78;71.63
49044;BME280;34860;48.066;14.124;2024-03-22T07:07:45;97105.06;;;8.86;71.64
49044;BME280;34860;48.066;14.124;2024-03-22T07:10:40;97112.09;;;8.94;71.53
49044;BME280;34860;48.066;14.124;2024-03-22T07:13:27;97113.94;;;9.04;71.65
49044;BME280;34860;48.066;14.124;2024-03-22T07:16:14;97108.31;;;9.12;71.43
49044;BME280;34860;48.066;14.124;2024-03-22T07:19:01;97103.44;;;9.19;71.48
49044;BME280;34860;48.066;14.124;2024-03-22T07:21:49;97098.69;;;9.20;71.60
49044;BME280;34860;48.066;14.124;2024-03-22T07:24:36;97102.63;;;9.22;71.58
49044;BME280;34860;48.066;14.124;2024-03-22T07:27:26;97098.19;;;9.29;71.50
49044;BME280;34860;48.066;14.124;2024-03-22T07:30:16;97107.50;;;9.42;71.38
49044;BME280;34860;48.066;14.124;2024-03-22T07:33:07;97106.13;;;9.54;71.33
49044;BME280;34860;48.066;14.124;2024-03-22T07:35:54;97108.38;;;9.62;71.31
49044;BME280;34860;48.066;14.124;2024-03-22T07:38:43;97108.25;;;9.70;71.18
49044;BME280;34860;48.066;14.124;2024-03-22T07:41:30;97106.91;;;9.81;71.03
49044;BME280;34860;48.066;14.124;2024-03-22T07:44:20;97107.16;;;9.91;71.04
49044;BME280;34860;48.066;14.124;2024-03-22T07:47:10;97109.69;;;10.05;70.83
49044;BME280;34860;48.066;14.124;2024-03-22T07:49:57;97100.06;;;10.10;70.82
49044;BME280;34860;48.066;14.124;2024-03-22T07:52:45;97106.00;;;10.12;70.84
49044;BME280;34860;48.066;14.124;2024-03-22T07:55:31;97105.50;;;10.17;70.98
49044;BME280;34860;48.066;14.124;2024-03-22T07:58:19;97101.03;;;10.23;70.93
49044;BME280;34860;48.066;14.124;2024-03-22T08:01:18;97096.56;;;10.29;70.83
49044;BME280;34860;48.066;14.124;2024-03-22T08:04:25;97106.44;;;10.34;70.81
49044;BME280;34860;48.066;14.124;2024-03-22T08:07:12;97097.97;;;10.41;70.80
49044;BME280;34860;48.066;14.124;2024-03-22T08:10:00;97098.69;;;10.45;70.67
49044;BME280;34860;48.066;14.124;2024-03-22T08:12:48;97095.41;;;10.50;70.63
49044;BME280;34860;48.066;14.124;2024-03-22T08:15:35;97096.91;;;10.55;70.68
49044;BME280;34860;48.066;14.124;2024-03-22T08:18:24;97098.84;;;10.58;70.49
49044;BME280;34860;48.066;14.124;2024-03-22T08:21:12;97095.47;;;10.67;70.51
49044;BME280;34860;48.066;14.124;2024-03-22T08:23:58;97096.13;;;10.75;70.55
49044;BME280;34860;48.066;14.124;2024-03-22T08:26:46;97094.34;;;10.84;70.20
49044;BME280;34860;48.066;14.124;2024-03-22T08:29:33;97089.22;;;10.83;70.44
49044;BME280;34860;48.066;14.124;2024-03-22T08:32:21;97099.69;;;10.95;70.52
49044;BME280;34860;48.066;14.124;2024-03-22T08:35:09;97096.53;;;11.13;70.00
49044;BME280;34860;48.066;14.124;2024-03-22T08:37:57;97090.22;;;11.29;69.71
49044;BME280;34860;48.066;14.124;2024-03-22T08:40:44;97093.28;;;11.35;69.80
49044;BME280;34860;48.066;14.124;2024-03-22T08:43:32;97092.34;;;11.41;69.86
49044;BME280;34860;48.066;14.124;2024-03-22T08:46:18;97084.19;;;11.51;69.77
49044;BME280;34860;48.066;14.124;2024-03-22T08:49:08;97093.41;;;11.64;69.80
49044;BME280;34860;48.066;14.124;2024-03-22T08:51:56;97086.88;;;11.71;69.50
49044;BME280;34860;48.066;14.124;2024-03-22T08:54:43;97082.91;;;11.72;69.57
49044;BME280;34860;48.066;14.124;2024-03-22T08:57:30;97076.81;;;11.77;69.64
49044;BME280;34860;48.066;14.124;2024-03-22T09:00:20;97065.66;;;11.93;69.40
49044;BME280;34860;48.066;14.124;2024-03-22T09:03:07;97073.41;;;12.18;68.94
49044;BME280;34860;48.066;14.124;2024-03-22T09:05:54;97073.41;;;12.18;68.86
49044;BME280;34860;48.066;14.124;2024-03-22T09:08:43;97073.06;;;12.16;68.95
49044;BME280;34860;48.066;14.124;2024-03-22T09:11:32;97062.69;;;12.17;69.08
49044;BME280;34860;48.066;14.124;2024-03-22T09:14:19;97058.16;;;12.23;69.11
49044;BME280;34860;48.066;14.124;2024-03-22T09:17:07;97048.63;;;12.37;68.77
49044;BME280;34860;48.066;14.124;2024-03-22T09:19:54;97055.63;;;12.58;68.55
49044;BME280;34860;48.066;14.124;2024-03-22T09:22:41;97048.13;;;12.84;68.03
49044;BME280;34860;48.066;14.124;2024-03-22T09:25:31;97044.41;;;12.75;67.97
49044;BME280;34860;48.066;14.124;2024-03-22T09:28:18;97050.78;;;12.75;68.00
49044;BME280;34860;48.066;14.124;2024-03-22T09:31:06;97043.00;;;12.83;67.99
49044;BME280;34860;48.066;14.124;2024-03-22T09:33:53;97045.22;;;12.88;67.87
49044;BME280;34860;48.066;14.124;2024-03-22T09:36:40;97045.47;;;13.06;67.59
49044;BME280;34860;48.066;14.124;2024-03-22T09:39:27;97043.25;;;13.27;67.17
49044;BME280;34860;48.066;14.124;2024-03-22T09:42:23;97040.63;;;13.36;67.00
49044;BME280;34860;48.066;14.124;2024-03-22T09:45:12;97033.13;;;13.46;66.88
49044;BME280;34860;48.066;14.124;2024-03-22T09:48:06;97034.25;;;13.61;66.78
49044;BME280;34860;48.066;14.124;2024-03-22T09:50:53;97032.19;;;13.75;66.46
49044;BME280;34860;48.066;14.124;2024-03-22T09:53:43;97015.66;;;13.80;66.33
49044;BME280;34860;48.066;14.124;2024-03-22T09:56:30;97014.66;;;13.87;66.46
49044;BME280;34860;48.066;14.124;2024-03-22T09:59:20;97007.13;;;13.97;66.29
49044;BME280;34860;48.066;14.124;2024-03-22T10:02:10;97002.53;;;14.03;66.49
49044;BME280;34860;48.066;14.124;2024-03-22T10:04:58;97005.03;;;14.23;65.89
49044;BME280;34860;48.066;14.124;2024-03-22T10:07:47;96999.06;;;14.56;65.48
49044;BME280;34860;48.066;14.124;2024-03-22T10:10:34;97006.88;;;14.83;64.92
49044;BME280;34860;48.066;14.124;2024-03-22T10:13:22;96995.34;;;15.03;64.41
49044;BME280;34860;48.066;14.124;2024-03-22T10:16:10;96988.75;;;15.29;64.13
49044;BME280;34860;48.066;14.124;2024-03-22T10:18:58;96990.41;;;15.57;63.63
49044;BME280;34860;48.066;14.124;2024-03-22T10:21:46;96985.66;;;15.95;62.44
49044;BME280;34860;48.066;14.124;2024-03-22T10:24:35;96979.13;;;15.98;62.13
49044;BME280;34860;48.066;14.124;2024-03-22T10:27:22;96978.66;;;16.00;62.31
49044;BME280;34860;48.066;14.124;2024-03-22T10:30:12;96972.28;;;15.99;62.32
49044;BME280;34860;48.066;14.124;2024-03-22T10:33:05;96959.50;;;16.35;61.71
49044;BME280;34860;48.066;14.124;2024-03-22T10:35:53;96962.13;;;16.48;61.37
49044;BME280;34860;48.066;14.124;2024-03-22T10:38:40;96972.22;;;17.34;59.59
49044;BME280;34860;48.066;14.124;2024-03-22T10:41:28;96969.63;;;17.79;58.40
49044;BME280;34860;48.066;14.124;2024-03-22T10:44:15;96971.69;;;17.45;58.98
49044;BME280;34860;48.066;14.124;2024-03-22T10:47:04;96968.94;;;16.93;60.20
49044;BME280;34860;48.066;14.124;2024-03-22T10:49:54;96970.25;;;16.37;61.47
49044;BME280;34860;48.066;14.124;2024-03-22T10:52:48;96955.75;;;16.29;61.88
49044;BME280;34860;48.066;14.124;2024-03-22T10:55:38;96960.13;;;16.30;61.85
49044;BME280;34860;48.066;14.124;2024-03-22T10:58:29;96958.09;;;16.30;61.92
49044;BME280;34860;48.066;14.124;2024-03-22T11:01:22;96955.44;;;16.55;61.41
49044;BME280;34860;48.066;14.124;2024-03-22T11:04:10;96954.66;;;17.49;59.88
49044;BME280;34860;48.066;14.124;2024-03-22T11:07:05;96950.44;;;17.77;58.49
49044;BME280;34860;48.066;14.124;2024-03-22T11:09:56;96954.00;;;17.30;59.64
49044;BME280;34860;48.066;14.124;2024-03-22T11:12:45;96947.97;;;17.13;60.10
49044;BME280;34860;48.066;14.124;2024-03-22T11:15:35;96943.03;;;16.98;60.59
49044;BME280;34860;48.066;14.124;2024-03-22T11:18:23;96948.50;;;16.93;60.81
49044;BME280;34860;48.066;14.124;2024-03-22T11:21:11;96935.09;;;16.87;61.05
49044;BME280;34860;48.066;14.124;2024-03-22T11:24:03;96934.34;;;16.87;61.08
49044;BME280;34860;48.066;14.124;2024-03-22T11:26:51;96933.06;;;16.88;61.02
49044;BME280;34860;48.066;14.124;2024-03-22T11:29:39;96927.16;;;16.77;61.15
49044;BME280;34860;48.066;14.124;2024-03-22T11:32:28;96927.03;;;16.71;61.32
49044;BME280;34860;48.066;14.124;2024-03-22T11:35:16;96916.59;;;16.62;61.50
49044;BME280;34860;48.066;14.124;2024-03-22T11:38:05;96920.03;;;16.57;61.54
49044;BME280;34860;48.066;14.124;2024-03-22T11:40:55;96915.34;;;16.63;61.16
49044;BME280;34860;48.066;14.124;2024-03-22T11:43:46;96919.72;;;16.64;61.44
49044;BME280;34860;48.066;14.124;2024-03-22T11:46:33;96918.50;;;16.47;61.57
49044;BME280;34860;48.066;14.124;2024-03-22T11:49:22;96906.06;;;16.39;61.79
49044;BME280;34860;48.066;14.124;2024-03-22T11:52:08;96900.28;;;16.51;61.44
49044;BME280;34860;48.066;14.124;2024-03-22T11:54:57;96892.59;;;16.61;61.20
49044;BME280;34860;48.066;14.124;2024-03-22T11:57:49;96894.09;;;16.81;60.76
49044;BME280;34860;48.066;14.124;2024-03-22T12:00:43;96881.28;;;16.89;60.50
49044;BME280;34860;48.066;14.124;2024-03-22T12:03:47;96887.34;;;16.97;60.34
49044;BME280;34860;48.066;14.124;2024-03-22T12:06:35;96883.34;;;16.88;60.32
49044;BME280;34860;48.066;14.124;2024-03-22T12:09:23;96876.03;;;16.73;60.42
49044;BME280;34860;48.066;14.124;2024-03-22T12:12:11;96869.31;;;16.79;60.29
49044;BME280;34860;48.066;14.124;2024-03-22T12:15:00;96859.06;;;17.10;59.92
49044;BME280;34860;48.066;14.124;2024-03-22T12:17:51;96856.19;;;17.82;58.49
49044;BME280;34860;48.066;14.124;2024-03-22T12:20:43;96854.56;;;18.29;57.43
49044;BME280;34860;48.066;14.124;2024-03-22T12:23:31;96853.28;;;18.15;57.35
49044;BME280;34860;48.066;14.124;2024-03-22T12:26:27;96849.72;;;17.76;58.12
49044;BME280;34860;48.066;14.124;2024-03-22T12:29:22;96850.25;;;17.65;58.56
49044;BME280;34860;48.066;14.124;2024-03-22T12:32:16;96841.84;;;17.80;58.30
49044;BME280;34860;48.066;14.124;2024-03-22T12:35:03;96836.13;;;18.43;57.34
49044;BME280;34860;48.066;14.124;2024-03-22T12:37:52;96826.38;;;18.74;56.59
49044;BME280;34860;48.066;14.124;2024-03-22T12:40:39;96824.19;;;19.55;55.18
49044;BME280;34860;48.066;14.124;2024-03-22T12:43:27;96822.75;;;19.65;54.72
49044;BME280;34860;48.066;14.124;2024-03-22T12:46:13;96812.53;;;19.68;54.97
49044;BME280;34860;48.066;14.124;2024-03-22T12:49:02;96803.31;;;20.14;54.27
49044;BME280;34860;48.066;14.124;2024-03-22T12:51:49;96802.22;;;21.01;52.75
49044;BME280;34860;48.066;14.124;2024-03-22T12:54:37;96799.66;;;21.09;52.77
49044;BME280;34860;48.066;14.124;2024-03-22T12:57:23;96788.00;;;21.33;52.39
49044;BME280;34860;48.066;14.124;2024-03-22T13:00:11;96793.19;;;22.40;51.11
49044;BME280;34860;48.066;14.124;2024-03-22T13:02:59;96782.84;;;22.88;49.52
49044;BME280;34860;48.066;14.124;2024-03-22T13:05:48;96773.38;;;22.40;50.54
49044;BME280;34860;48.066;14.124;2024-03-22T13:08:34;96765.53;;;21.84;51.85
49044;BME280;34860;48.066;14.124;2024-03-22T13:11:22;96763.72;;;21.75;52.29
49044;BME280;34860;48.066;14.124;2024-03-22T13:14:10;96751.44;;;21.95;51.72
49044;BME280;34860;48.066;14.124;2024-03-22T13:16:56;96751.69;;;21.98;51.65
49044;BME280;34860;48.066;14.124;2024-03-22T13:19:44;96749.38;;;22.19;51.14
49044;BME280;34860;48.066;14.124;2024-03-22T13:22:32;96745.94;;;21.58;52.13
49044;BME280;34860;48.066;14.124;2024-03-22T13:25:19;96741.16;;;22.21;51.46
49044;BME280;34860;48.066;14.124;2024-03-22T13:28:06;96741.13;;;21.87;51.44
49044;BME280;34860;48.066;14.124;2024-03-22T13:30:59;96734.50;;;21.24;52.15
49044;BME280;34860;48.066;14.124;2024-03-22T13:33:46;96729.22;;;20.89;52.82
49044;BME280;34860;48.066;14.124;2024-03-22T13:36:33;96717.25;;;20.67;52.75
49044;BME280;34860;48.066;14.124;2024-03-22T13:39:22;96704.38;;;19.91;53.90
49044;BME280;34860;48.066;14.124;2024-03-22T13:42:09;96708.03;;;19.98;53.68
49044;BME280;34860;48.066;14.124;2024-03-22T13:44:56;96696.41;;;19.90;53.87
49044;BME280;34860;48.066;14.124;2024-03-22T13:47:44;96700.94;;;20.13;53.12
49044;BME280;34860;48.066;14.124;2024-03-22T13:50:30;96691.25;;;20.20;52.69
49044;BME280;34860;48.066;14.124;2024-03-22T13:53:18;96682.78;;;20.20;52.18
49044;BME280;34860;48.066;14.124;2024-03-22T13:56:07;96679.91;;;19.83;52.54
49044;BME280;34860;48.066;14.124;2024-03-22T13:58:55;96674.44;;;20.00;52.43
49044;BME280;34860;48.066;14.124;2024-03-22T14:01:41;96674.59;;;19.90;52.04
49044;BME280;34860;48.066;14.124;2024-03-22T14:04:31;96666.47;;;19.72;52.64
49044;BME280;34860;48.066;14.124;2024-03-22T14:07:19;96664.31;;;20.19;51.32
49044;BME280;34860;48.066;14.124;2024-03-22T14:10:06;96657.25;;;19.98;51.40
49044;BME280;34860;48.066;14.124;2024-03-22T14:12:56;96648.50;;;19.69;51.65
49044;BME280;34860;48.066;14.124;2024-03-22T14:15:42;96650.22;;;19.09;52.64
49044;BME280;34860;48.066;14.124;2024-03-22T14:18:29;96641.69;;;18.62;53.31
49044;BME280;34860;48.066;14.124;2024-03-22T14:21:16;96649.19;;;18.29;53.75
49044;BME280;34860;48.066;14.124;2024-03-22T14:24:05;96635.19;;;18.00;53.94
49044;BME280;34860;48.066;14.124;2024-03-22T14:26:51;96636.25;;;17.87;53.65
49044;BME280;34860;48.066;14.124;2024-03-22T14:29:40;96626.69;;;17.79;53.30
49044;BME280;34860;48.066;14.124;2024-03-22T14:32:27;96625.00;;;17.72;53.30
49044;BME280;34860;48.066;14.124;2024-03-22T14:35:14;96614.47;;;17.67;53.09
49044;BME280;34860;48.066;14.124;2024-03-22T14:38:01;96619.69;;;17.74;52.94
49044;BME280;34860;48.066;14.124;2024-03-22T14:40:49;96608.53;;;17.80;52.66
49044;BME280;34860;48.066;14.124;2024-03-22T14:43:36;96607.00;;;17.79;52.29
49044;BME280;34860;48.066;14.124;2024-03-22T14:46:25;96601.47;;;17.70;52.38
49044;BME280;34860;48.066;14.124;2024-03-22T14:49:12;96600.34;;;17.61;52.29
49044;BME280;34860;48.066;14.124;2024-03-22T14:51:59;96595.19;;;17.60;52.12
49044;BME280;34860;48.066;14.124;2024-03-22T14:54:46;96588.72;;;17.54;51.98